Flight Briefing for CMB817

Departure Arrival
RAF Mildenhall (EGUN)
Click to view FAA NOTAMS
Ramstein Air Force Base (ETAR)
Click to view FAA NOTAMS
Departure Time Arrival Time
N/A N/A
Aircraft Distance
B767-300BDSF 322nm
Departure METAR Arrival METAR
EGUN 232156Z 18003KT 9999 BKN070 BKN180 15/10 A2995 RMK AO2A SLP145 T01530103 $ ETAR 232156Z AUTO 00000KT 9999 CLR 09/08 A3003 RMK AO2 SLP171 T00880082 $
Suggested Route





View recent IFR Routes data
Notes
USTRANSCOM CONTRACT FLIGHT

Charts and Procedures

Charts for EGUN
No chart available
Charts for ETAR
No chart available

Windy.com Weather Map